Herman, Minnesota
Current Conditions -  °F | °C
As of 8:15 PM on Friday 24 Oct 2014 (Local Time) from KY63 Reporting Station
Clear Clear  
Wind Chill: 62°   Ceiling: Unl
Heat Index: 62°   Visibility: 10mi
Dew Point: 43°   Wind: 9mph
Humidity: 51%   Direction: 290°WNW
Pressure: 29.87"   Gusts: NA
Location:  45.81°N, 96.14°W
Report Text: KY63 250115Z AUTO 29008KT 10SM CLR 17/06 A2987 RMK AO2 T01650062
Loading
Personal Weather Stations






























Interactive Weather Map
Tropical Storm Tracking
New forecast layout! Learn more

10-Day Weather Forecast

Advertisements
Track Severe Weather on mobile